Time;durP1;ratioP1;P1;durP2;ratioP2;P2;SDS_P1;SDS_P2;PMS_P1;PMS_P2;Temp;Humidity;BMP_temperature;BMP_pressure;BME280_temperature;BME280_humidity;BME280_pressure;Samples;Min_cycle;Max_cycle;Signal;HPM_P1;HPM_P2
2023/10/15 00:00:00;;;;;;;13.48;3.35;;;;;;;;;;2074035;28;20042;-58
2023/10/15 00:01:05;;;;;;;7.40;2.85;;;;;;;;;;2074223;28;20053;-58
2023/10/15 00:02:06;;;;;;;9.05;3.13;;;;;;;;;;2073880;28;20117;-58
2023/10/15 00:03:09;;;;;;;9.65;2.90;;;;;;;;;;2074111;28;20053;-58
2023/10/15 00:04:12;;;;;;;7.90;2.55;;;;;;;;;;2074378;28;20366;-58
2023/10/15 00:05:15;;;;;;;8.07;2.55;;;;;;;;;;2074364;28;20038;-57
2023/10/15 00:06:15;;;;;;;10.32;2.78;;;;;;;;;;2073352;28;20046;-58
2023/10/15 00:07:16;;;;;;;9.38;2.80;;;;;;;;;;2073656;28;20414;-57
2023/10/15 00:08:17;;;;;;;6.97;2.40;;;;;;;;;;2074373;28;20041;-57
2023/10/15 00:09:18;;;;;;;9.20;3.83;;;;;;;;;;2074168;28;20034;-59
2023/10/15 00:10:20;;;;;;;7.60;2.40;;;;;;;;;;2074282;28;20406;-57
2023/10/15 00:11:21;;;;;;;8.00;2.88;;;;;;;;;;2073772;28;20049;-58
2023/10/15 00:12:22;;;;;;;9.90;3.00;;;;;;;;;;2074087;28;20355;-57
2023/10/15 00:13:23;;;;;;;7.68;2.45;;;;;;;;;;2074284;28;20037;-58
2023/10/15 00:14:24;;;;;;;7.30;2.75;;;;;;;;;;2073822;28;20053;-58
2023/10/15 00:15:27;;;;;;;7.70;3.15;;;;;;;;;;2073273;28;20506;-58
2023/10/15 00:16:28;;;;;;;10.57;2.78;;;;;;;;;;2073567;28;20058;-58
2023/10/15 00:17:30;;;;;;;11.70;2.65;;;;;;;;;;2073981;28;20030;-58
2023/10/15 00:18:31;;;;;;;8.15;3.30;;;;;;;;;;2073946;28;20045;-58
2023/10/15 00:19:32;;;;;;;10.57;3.75;;;;;;;;;;2074020;28;20057;-57
2023/10/15 00:20:36;;;;;;;7.95;2.88;;;;;;;;;;2073982;28;20056;-58
2023/10/15 00:21:37;;;;;;;15.02;3.53;;;;;;;;;;2074075;28;20048;-58
2023/10/15 00:22:38;;;;;;;10.43;3.63;;;;;;;;;;2074048;28;20029;-58
2023/10/15 00:23:40;;;;;;;7.60;3.60;;;;;;;;;;2073438;28;20045;-58
2023/10/15 00:24:41;;;;;;;6.97;2.65;;;;;;;;;;2072803;28;20053;-58
2023/10/15 00:25:47;;;;;;;8.82;2.92;;;;;;;;;;2074168;28;20473;-58
2023/10/15 00:26:49;;;;;;;8.70;2.42;;;;;;;;;;2074274;28;20030;-58
2023/10/15 00:27:52;;;;;;;8.32;2.75;;;;;;;;;;2073474;28;20042;-58
2023/10/15 00:28:55;;;;;;;9.57;3.15;;;;;;;;;;2072833;28;20056;-58
2023/10/15 00:29:56;;;;;;;10.93;3.67;;;;;;;;;;2074251;28;20454;-58
2023/10/15 00:30:56;;;;;;;11.57;2.92;;;;;;;;;;2073602;28;20044;-57
2023/10/15 00:31:57;;;;;;;7.00;2.53;;;;;;;;;;2073805;28;20049;-58
2023/10/15 00:32:58;;;;;;;7.07;2.50;;;;;;;;;;2073920;28;20124;-58
2023/10/15 00:33:59;;;;;;;7.82;2.95;;;;;;;;;;2073618;28;20040;-58
2023/10/15 00:35:00;;;;;;;8.70;2.97;;;;;;;;;;2073097;28;20545;-57
2023/10/15 00:36:01;;;;;;;7.75;3.28;;;;;;;;;;2073923;28;20485;-58
2023/10/15 00:37:01;;;;;;;13.35;3.58;;;;;;;;;;2074061;28;20040;-58
2023/10/15 00:38:11;;;;;;;9.35;3.42;;;;;;;;;;2073880;28;20050;-57
2023/10/15 00:39:21;;;;;;;7.63;3.17;;;;;;;;;;2074290;28;20034;-58
2023/10/15 00:40:22;;;;;;;10.25;3.10;;;;;;;;;;2073240;28;20042;-57
2023/10/15 00:41:23;;;;;;;9.07;2.78;;;;;;;;;;2073413;28;20048;-57
2023/10/15 00:42:23;;;;;;;7.28;3.08;;;;;;;;;;2072646;28;20048;-57
2023/10/15 00:43:24;;;;;;;10.00;3.20;;;;;;;;;;2065136;28;20406;-58
2023/10/15 00:44:26;;;;;;;5.70;2.58;;;;;;;;;;2073564;28;20478;-58
2023/10/15 00:45:27;;;;;;;5.75;2.63;;;;;;;;;;2073291;28;20037;-58
2023/10/15 00:46:28;;;;;;;6.07;2.47;;;;;;;;;;2065103;28;20046;-57
2023/10/15 00:47:34;;;;;;;8.23;2.88;;;;;;;;;;2073374;28;20457;-57
2023/10/15 00:48:36;;;;;;;7.07;2.60;;;;;;;;;;2072860;28;20041;-58
2023/10/15 00:49:37;;;;;;;7.30;2.63;;;;;;;;;;2072601;28;20042;-58
2023/10/15 00:50:43;;;;;;;11.82;3.15;;;;;;;;;;2072705;28;20045;-57
2023/10/15 00:51:44;;;;;;;6.20;2.80;;;;;;;;;;2072720;28;20418;-58
2023/10/15 00:52:45;;;;;;;6.95;2.47;;;;;;;;;;2073207;28;20034;-57
2023/10/15 00:53:50;;;;;;;9.88;3.08;;;;;;;;;;2057026;28;20046;-57
2023/10/15 00:54:52;;;;;;;8.82;2.63;;;;;;;;;;2065762;28;20045;-58
2023/10/15 00:56:02;;;;;;;10.60;2.65;;;;;;;;;;2073116;28;20398;-58
2023/10/15 00:58:32;;;;;;;7.75;2.80;;;;;;;;;;2073329;28;20045;-58
2023/10/15 00:59:48;;;;;;;17.00;3.47;;;;;;;;;;2073291;28;20041;-58
2023/10/15 01:03:05;;;;;;;7.60;2.88;;;;;;;;;;2073588;28;20386;-58
2023/10/15 01:04:06;;;;;;;9.18;2.90;;;;;;;;;;2073827;28;20034;-58
2023/10/15 01:05:07;;;;;;;8.30;2.58;;;;;;;;;;2073047;28;20042;-57
2023/10/15 01:06:08;;;;;;;8.27;2.90;;;;;;;;;;2073416;28;20037;-58
2023/10/15 01:07:22;;;;;;;11.13;3.03;;;;;;;;;;2064748;28;20218;-56
2023/10/15 01:08:32;;;;;;;8.00;2.67;;;;;;;;;;2067149;28;20034;-57
2023/10/15 01:09:33;;;;;;;9.40;2.67;;;;;;;;;;2073914;28;20045;-58
2023/10/15 01:10:39;;;;;;;4.35;2.20;;;;;;;;;;2073808;28;20397;-58
2023/10/15 01:11:44;;;;;;;10.38;2.78;;;;;;;;;;2072565;28;20050;-57
2023/10/15 01:12:45;;;;;;;9.30;2.63;;;;;;;;;;2072786;28;20425;-57
2023/10/15 01:13:46;;;;;;;7.65;2.20;;;;;;;;;;2073578;28;20038;-58
2023/10/15 01:14:46;;;;;;;7.78;2.28;;;;;;;;;;2073544;28;20038;-58
2023/10/15 01:15:54;;;;;;;6.93;1.90;;;;;;;;;;2073797;28;20050;-57
2023/10/15 01:16:55;;;;;;;8.25;2.00;;;;;;;;;;2073919;28;20402;-58
2023/10/15 01:18:06;;;;;;;13.73;2.13;;;;;;;;;;2073797;28;20049;-58
2023/10/15 01:20:18;;;;;;;9.48;2.42;;;;;;;;;;2073496;28;20060;-57
2023/10/15 01:21:19;;;;;;;8.95;2.30;;;;;;;;;;2073454;28;20528;-57
2023/10/15 01:22:22;;;;;;;6.47;2.03;;;;;;;;;;2073434;28;20057;-57
2023/10/15 01:23:28;;;;;;;6.88;1.95;;;;;;;;;;2073372;28;20042;-57
2023/10/15 01:24:32;;;;;;;7.78;2.15;;;;;;;;;;2074167;28;20466;-57
2023/10/15 01:25:34;;;;;;;7.28;1.90;;;;;;;;;;2073610;28;20060;-57
2023/10/15 01:26:39;;;;;;;11.25;2.38;;;;;;;;;;2073626;28;20049;-58
2023/10/15 01:27:39;;;;;;;5.80;1.63;;;;;;;;;;2073894;28;20041;-57
2023/10/15 01:28:42;;;;;;;6.32;2.08;;;;;;;;;;2073973;28;20053;-57
2023/10/15 01:29:44;;;;;;;7.35;2.15;;;;;;;;;;2073001;28;20046;-57
2023/10/15 01:30:50;;;;;;;8.43;1.92;;;;;;;;;;2073055;28;20029;-57
2023/10/15 01:31:51;;;;;;;5.75;1.85;;;;;;;;;;2072969;28;20081;-57
2023/10/15 01:32:52;;;;;;;4.65;1.80;;;;;;;;;;2073598;28;20030;-57
2023/10/15 01:33:53;;;;;;;8.77;2.33;;;;;;;;;;2073531;28;20049;-57
2023/10/15 01:34:55;;;;;;;7.75;1.83;;;;;;;;;;2073659;28;20043;-57
2023/10/15 01:36:06;;;;;;;6.97;2.13;;;;;;;;;;2073704;28;20386;-57
2023/10/15 01:37:15;;;;;;;6.78;2.10;;;;;;;;;;2073556;28;20042;-58
2023/10/15 01:38:26;;;;;;;5.55;1.88;;;;;;;;;;2073630;28;20356;-57
2023/10/15 01:39:38;;;;;;;5.63;2.03;;;;;;;;;;2073101;28;20042;-57
2023/10/15 01:40:44;;;;;;;8.60;2.00;;;;;;;;;;2073320;28;20042;-57
2023/10/15 01:41:50;;;;;;;8.55;2.60;;;;;;;;;;2073493;28;20042;-57
2023/10/15 01:42:54;;;;;;;10.05;1.80;;;;;;;;;;2073403;28;20401;-57
2023/10/15 01:43:58;;;;;;;7.45;1.95;;;;;;;;;;2073570;28;20482;-58
2023/10/15 01:45:13;;;;;;;7.45;1.63;;;;;;;;;;2072829;28;20053;-58
2023/10/15 01:46:25;;;;;;;5.97;1.73;;;;;;;;;;2073681;28;20386;-58
2023/10/15 01:47:34;;;;;;;8.27;2.70;;;;;;;;;;2073410;28;20050;-58
2023/10/15 01:48:39;;;;;;;6.47;2.08;;;;;;;;;;2072102;28;20046;-58
2023/10/15 01:49:41;;;;;;;8.32;2.00;;;;;;;;;;2065365;28;20534;-58
2023/10/15 01:50:51;;;;;;;6.28;1.40;;;;;;;;;;2072424;28;20042;-58
2023/10/15 01:51:53;;;;;;;10.68;2.00;;;;;;;;;;2072959;28;20030;-58
2023/10/15 01:53:01;;;;;;;6.45;1.95;;;;;;;;;;2072710;28;20056;-57
2023/10/15 01:54:02;;;;;;;7.18;2.20;;;;;;;;;;2073231;28;20053;-57
2023/10/15 01:55:04;;;;;;;5.93;2.10;;;;;;;;;;2073672;28;20069;-57
2023/10/15 01:56:04;;;;;;;9.23;2.17;;;;;;;;;;2073554;28;20038;-57
2023/10/15 01:57:09;;;;;;;8.82;1.95;;;;;;;;;;2072861;28;20482;-58
2023/10/15 01:58:12;;;;;;;5.50;1.70;;;;;;;;;;2064709;28;20038;-57
2023/10/15 01:59:16;;;;;;;3.83;1.52;;;;;;;;;;2064592;28;20046;-58
2023/10/15 02:01:49;;;;;;;8.15;2.00;;;;;;;;;;2072870;28;20053;-58
2023/10/15 02:02:50;;;;;;;10.80;2.17;;;;;;;;;;2073515;28;20052;-57
2023/10/15 02:03:51;;;;;;;5.95;2.33;;;;;;;;;;2072456;28;20042;-57
2023/10/15 02:04:57;;;;;;;12.23;2.42;;;;;;;;;;2072384;28;20069;-57
2023/10/15 02:06:04;;;;;;;8.95;2.00;;;;;;;;;;2072608;28;20049;-57
2023/10/15 02:07:05;;;;;;;7.05;1.67;;;;;;;;;;2072540;28;20053;-58
2023/10/15 02:08:06;;;;;;;9.13;2.03;;;;;;;;;;2073351;28;20049;-58
2023/10/15 02:09:11;;;;;;;7.53;2.42;;;;;;;;;;2073393;28;20049;-58
2023/10/15 02:10:13;;;;;;;8.70;2.67;;;;;;;;;;2065263;28;20041;-58
2023/10/15 02:11:21;;;;;;;6.10;1.70;;;;;;;;;;2072626;28;20450;-58
2023/10/15 02:12:21;;;;;;;5.27;1.67;;;;;;;;;;2073225;28;20050;-58
2023/10/15 02:13:22;;;;;;;10.02;2.88;;;;;;;;;;2073778;28;20502;-57
2023/10/15 02:14:27;;;;;;;5.50;2.03;;;;;;;;;;2074226;28;20045;-57
2023/10/15 02:15:37;;;;;;;2.90;1.45;;;;;;;;;;2074617;28;20052;-57
2023/10/15 02:16:39;;;;;;;9.20;2.13;;;;;;;;;;2065567;28;20054;-57
2023/10/15 02:17:43;;;;;;;7.45;1.70;;;;;;;;;;2066803;28;20524;-56
2023/10/15 02:18:51;;;;;;;6.55;2.28;;;;;;;;;;2074382;28;20413;-58
2023/10/15 02:19:55;;;;;;;9.70;1.98;;;;;;;;;;2067076;28;20046;-57
2023/10/15 02:21:56;;;;;;;6.78;1.90;;;;;;;;;;2066472;28;20039;-57
2023/10/15 02:22:57;;;;;;;8.95;2.38;;;;;;;;;;2074225;28;20045;-57
2023/10/15 02:24:08;;;;;;;7.65;2.20;;;;;;;;;;2074914;28;20045;-58
2023/10/15 02:25:09;;;;;;;8.82;2.50;;;;;;;;;;2074826;28;20038;-57
2023/10/15 02:26:09;;;;;;;7.63;1.65;;;;;;;;;;2074675;28;20045;-56
2023/10/15 02:27:11;;;;;;;7.38;1.70;;;;;;;;;;2074882;28;20058;-57
2023/10/15 02:28:12;;;;;;;6.35;1.77;;;;;;;;;;2065831;28;20053;-58
2023/10/15 02:29:28;;;;;;;5.70;2.10;;;;;;;;;;2066111;28;20045;-57
2023/10/15 02:30:32;;;;;;;11.60;2.05;;;;;;;;;;2066271;28;20038;-57
2023/10/15 02:31:41;;;;;;;11.25;2.85;;;;;;;;;;2068700;28;20042;-57
2023/10/15 02:32:43;;;;;;;8.77;2.03;;;;;;;;;;2075117;28;20053;-58
2023/10/15 02:33:44;;;;;;;10.48;2.00;;;;;;;;;;2074600;28;20056;-57
2023/10/15 02:34:44;;;;;;;10.55;3.40;;;;;;;;;;2074616;28;20505;-57
2023/10/15 02:35:47;;;;;;;7.00;2.85;;;;;;;;;;2074332;28;20042;-57
2023/10/15 02:36:47;;;;;;;7.25;1.98;;;;;;;;;;2074236;28;20053;-57
2023/10/15 02:37:48;;;;;;;6.30;2.15;;;;;;;;;;2074913;28;20084;-57
2023/10/15 02:38:59;;;;;;;9.68;2.22;;;;;;;;;;2074761;28;20406;-58
2023/10/15 02:40:16;;;;;;;8.93;1.92;;;;;;;;;;2074173;28;20066;-58
2023/10/15 02:41:17;;;;;;;4.90;1.85;;;;;;;;;;2074474;28;20034;-57
2023/10/15 02:42:21;;;;;;;5.30;1.90;;;;;;;;;;2074727;28;20034;-57
2023/10/15 02:43:24;;;;;;;10.10;2.33;;;;;;;;;;2074689;28;20045;-57
2023/10/15 02:44:25;;;;;;;9.20;2.65;;;;;;;;;;2074986;28;20471;-57
2023/10/15 02:45:35;;;;;;;6.32;1.75;;;;;;;;;;2074800;28;20033;-57
2023/10/15 02:46:37;;;;;;;10.55;2.30;;;;;;;;;;2074677;28;20050;-57
2023/10/15 02:47:48;;;;;;;5.60;1.80;;;;;;;;;;2074289;28;20038;-57
2023/10/15 02:48:49;;;;;;;10.43;2.13;;;;;;;;;;2074915;28;20037;-57
2023/10/15 02:49:53;;;;;;;7.70;2.15;;;;;;;;;;2074804;28;20045;-57
2023/10/15 02:52:00;;;;;;;6.65;2.38;;;;;;;;;;2074730;28;20034;-57
2023/10/15 02:53:04;;;;;;;4.53;1.65;;;;;;;;;;2074755;28;20040;-57
2023/10/15 02:54:18;;;;;;;6.80;1.88;;;;;;;;;;2074625;28;20054;-57
2023/10/15 02:55:26;;;;;;;6.93;1.90;;;;;;;;;;2074773;28;20354;-58
2023/10/15 02:56:28;;;;;;;7.35;1.67;;;;;;;;;;2074939;28;20049;-58
2023/10/15 02:57:30;;;;;;;11.30;2.10;;;;;;;;;;2074558;28;20050;-57
2023/10/15 02:58:30;;;;;;;8.10;1.98;;;;;;;;;;2074300;28;20069;-57
2023/10/15 02:59:31;;;;;;;6.68;2.28;;;;;;;;;;2065851;28;20084;-57
2023/10/15 03:00:32;;;;;;;11.52;2.53;;;;;;;;;;2065225;28;20042;-58
2023/10/15 03:01:33;;;;;;;8.88;1.63;;;;;;;;;;2066214;28;20050;-57
2023/10/15 03:02:42;;;;;;;7.93;1.70;;;;;;;;;;2066087;28;20556;-57
2023/10/15 03:03:48;;;;;;;;;;;;;;;;;;2074190;28;20038;-57
2023/10/15 03:04:55;;;;;;;14.82;1.92;;;;;;;;;;2074625;28;19910;-58
2023/10/15 03:05:57;;;;;;;5.78;1.55;;;;;;;;;;2074672;28;20033;-57
2023/10/15 03:07:17;;;;;;;8.80;1.92;;;;;;;;;;2074381;28;20042;-57
2023/10/15 03:08:20;;;;;;;5.57;1.75;;;;;;;;;;2074139;28;20050;-57
2023/10/15 03:09:21;;;;;;;10.10;1.98;;;;;;;;;;2074316;28;20042;-57
2023/10/15 03:10:21;;;;;;;7.80;1.90;;;;;;;;;;2074901;28;20034;-57
2023/10/15 03:11:23;;;;;;;5.72;1.80;;;;;;;;;;2074508;28;20041;-57
2023/10/15 03:12:24;;;;;;;5.05;1.67;;;;;;;;;;2074307;28;20046;-57
2023/10/15 03:13:26;;;;;;;7.35;2.10;;;;;;;;;;2074717;28;20438;-58
2023/10/15 03:14:28;;;;;;;7.55;1.70;;;;;;;;;;2073282;28;20419;-58
2023/10/15 03:15:29;;;;;;;5.85;1.90;;;;;;;;;;2073112;28;20403;-57
2023/10/15 03:16:30;;;;;;;5.40;1.80;;;;;;;;;;2073400;28;20050;-57
2023/10/15 03:17:31;;;;;;;7.68;1.92;;;;;;;;;;2074123;28;20088;-57
2023/10/15 03:18:34;;;;;;;4.50;1.80;;;;;;;;;;2074102;28;20053;-57
2023/10/15 03:19:34;;;;;;;8.70;1.98;;;;;;;;;;2073501;28;20390;-57
2023/10/15 03:20:39;;;;;;;5.32;1.65;;;;;;;;;;2073952;28;20041;-57
2023/10/15 03:21:40;;;;;;;8.23;1.95;;;;;;;;;;2074056;28;20054;-58
2023/10/15 03:22:41;;;;;;;6.18;1.83;;;;;;;;;;2074167;28;20041;-57
2023/10/15 03:23:43;;;;;;;4.63;1.80;;;;;;;;;;2074366;28;20470;-57
2023/10/15 03:24:44;;;;;;;6.50;1.60;;;;;;;;;;2074696;28;20033;-57
2023/10/15 03:25:54;;;;;;;8.00;1.85;;;;;;;;;;2074035;28;20493;-57
2023/10/15 03:26:58;;;;;;;5.90;1.83;;;;;;;;;;2067212;28;20038;-57
2023/10/15 03:28:00;;;;;;;6.95;1.95;;;;;;;;;;2073323;28;20462;-57
2023/10/15 03:29:13;;;;;;;6.35;1.92;;;;;;;;;;2074095;28;20045;-57
2023/10/15 03:30:22;;;;;;;11.38;2.13;;;;;;;;;;2073244;28;20041;-57
2023/10/15 03:31:27;;;;;;;5.05;1.63;;;;;;;;;;2073769;28;20046;-57
2023/10/15 03:32:37;;;;;;;8.65;1.88;;;;;;;;;;2073415;28;20092;-57
2023/10/15 03:33:39;;;;;;;8.00;2.15;;;;;;;;;;2066895;28;20056;-57
2023/10/15 03:34:48;;;;;;;5.72;2.08;;;;;;;;;;2073737;28;20045;-58
2023/10/15 03:35:54;;;;;;;6.22;1.77;;;;;;;;;;2073423;28;20038;-57
2023/10/15 03:36:58;;;;;;;9.73;2.42;;;;;;;;;;2074105;28;20046;-57
2023/10/15 03:38:04;;;;;;;8.65;1.92;;;;;;;;;;2073189;28;20045;-57
2023/10/15 03:39:14;;;;;;;9.55;2.33;;;;;;;;;;2065795;28;20053;-57
2023/10/15 03:40:31;;;;;;;6.30;1.98;;;;;;;;;;2073607;28;20421;-57
2023/10/15 03:41:39;;;;;;;7.57;2.25;;;;;;;;;;2074459;28;20038;-57
2023/10/15 03:42:40;;;;;;;9.27;1.92;;;;;;;;;;2074690;28;20415;-57
2023/10/15 03:43:41;;;;;;;7.80;2.22;;;;;;;;;;2074427;28;20037;-57
2023/10/15 03:44:47;;;;;;;8.45;2.65;;;;;;;;;;2073961;28;20046;-58
2023/10/15 03:45:50;;;;;;;6.57;2.03;;;;;;;;;;2074525;28;20038;-57
2023/10/15 03:46:51;;;;;;;6.40;1.95;;;;;;;;;;2074440;28;20481;-57
2023/10/15 03:47:54;;;;;;;6.38;1.92;;;;;;;;;;2073918;28;20052;-57
2023/10/15 03:48:54;;;;;;;6.28;1.90;;;;;;;;;;2074404;28;20034;-57
2023/10/15 03:49:56;;;;;;;9.50;2.00;;;;;;;;;;2074272;28;20042;-57
2023/10/15 03:50:58;;;;;;;7.85;1.98;;;;;;;;;;2073599;28;20061;-57
2023/10/15 03:51:59;;;;;;;6.78;2.05;;;;;;;;;;2072749;28;20046;-57
2023/10/15 03:52:59;;;;;;;10.85;2.28;;;;;;;;;;2074267;28;20046;-57
2023/10/15 03:54:06;;;;;;;7.60;2.00;;;;;;;;;;2074628;28;20117;-57
2023/10/15 03:55:07;;;;;;;8.05;2.28;;;;;;;;;;2074540;28;20462;-57
2023/10/15 03:56:08;;;;;;;9.70;2.30;;;;;;;;;;2074226;28;20042;-57
2023/10/15 03:57:09;;;;;;;6.35;1.65;;;;;;;;;;2073524;28;20133;-57
2023/10/15 03:58:13;;;;;;;9.35;2.15;;;;;;;;;;2073997;28;20037;-57
2023/10/15 03:59:14;;;;;;;7.85;2.45;;;;;;;;;;2074169;28;20044;-57
2023/10/15 04:00:35;;;;;;;6.28;1.88;;;;;;;;;;2073776;28;20196;-57
2023/10/15 04:01:38;;;;;;;7.82;2.03;;;;;;;;;;2073857;28;20045;-57
2023/10/15 04:03:43;;;;;;;7.85;2.25;;;;;;;;;;2074362;28;20041;-57
2023/10/15 04:04:45;;;;;;;7.63;1.85;;;;;;;;;;2074139;28;20037;-58
2023/10/15 04:06:05;;;;;;;7.13;1.80;;;;;;;;;;2073956;28;20493;-58
2023/10/15 04:07:19;;;;;;;9.23;2.00;;;;;;;;;;2074222;28;20505;-57
2023/10/15 04:08:20;;;;;;;4.60;1.67;;;;;;;;;;2074309;28;20045;-57
2023/10/15 04:09:25;;;;;;;5.75;1.73;;;;;;;;;;2074411;28;20040;-57
2023/10/15 04:10:35;;;;;;;9.15;2.05;;;;;;;;;;2073407;28;20057;-56
2023/10/15 04:11:42;;;;;;;10.10;2.30;;;;;;;;;;2072990;28;20042;-57
2023/10/15 04:12:43;;;;;;;9.77;2.25;;;;;;;;;;2074075;28;20048;-57
2023/10/15 04:13:45;;;;;;;6.93;1.73;;;;;;;;;;2074081;28;20041;-57
2023/10/15 04:14:46;;;;;;;8.40;1.75;;;;;;;;;;2073776;28;20045;-57
2023/10/15 04:15:49;;;;;;;7.40;2.10;;;;;;;;;;2073982;28;20136;-57
2023/10/15 04:16:50;;;;;;;8.55;2.22;;;;;;;;;;2073463;28;20040;-57
2023/10/15 04:17:51;;;;;;;7.00;1.65;;;;;;;;;;2073660;28;20045;-57
2023/10/15 04:18:52;;;;;;;8.18;1.67;;;;;;;;;;2074305;28;20363;-57
2023/10/15 04:19:53;;;;;;;10.23;1.90;;;;;;;;;;2074058;28;20044;-57
2023/10/15 04:20:55;;;;;;;11.45;2.33;;;;;;;;;;2073879;28;20042;-57
2023/10/15 04:22:13;;;;;;;5.53;1.85;;;;;;;;;;2074312;28;20037;-57
2023/10/15 04:23:20;;;;;;;8.80;2.03;;;;;;;;;;2074179;28;20038;-57
2023/10/15 04:24:28;;;;;;;7.65;1.83;;;;;;;;;;2074388;28;20390;-58
2023/10/15 04:25:32;;;;;;;9.35;2.20;;;;;;;;;;2073863;28;20048;-57
2023/10/15 04:26:36;;;;;;;8.18;2.00;;;;;;;;;;2073878;28;20049;-57
2023/10/15 04:27:37;;;;;;;7.70;2.47;;;;;;;;;;2073720;28;20042;-57
2023/10/15 04:28:39;;;;;;;6.50;2.10;;;;;;;;;;2073934;28;20478;-58
2023/10/15 04:29:49;;;;;;;5.88;1.77;;;;;;;;;;2073629;28;20042;-57
2023/10/15 04:30:50;;;;;;;9.88;2.00;;;;;;;;;;2074195;28;20034;-57
2023/10/15 04:32:04;;;;;;;5.35;1.80;;;;;;;;;;2074039;28;20040;-58
2023/10/15 04:33:13;;;;;;;5.72;1.80;;;;;;;;;;2073520;28;20049;-58
2023/10/15 04:34:17;;;;;;;;;;;;;;;;;;2074720;28;20045;-57
2023/10/15 04:35:25;;;;;;;10.70;1.98;;;;;;;;;;2073345;28;19905;-57
2023/10/15 04:36:26;;;;;;;9.70;2.08;;;;;;;;;;2073377;28;20045;-57
2023/10/15 04:37:28;;;;;;;6.43;2.47;;;;;;;;;;2073544;28;20037;-57
2023/10/15 04:38:28;;;;;;;9.30;2.28;;;;;;;;;;2073369;28;20041;-57
2023/10/15 04:39:29;;;;;;;7.78;1.98;;;;;;;;;;2073716;28;20046;-57
2023/10/15 04:40:39;;;;;;;6.38;2.00;;;;;;;;;;2073691;28;20080;-57
2023/10/15 04:41:40;;;;;;;5.00;1.80;;;;;;;;;;2074131;28;20030;-57
2023/10/15 04:42:48;;;;;;;7.68;1.58;;;;;;;;;;2073273;28;20045;-57
2023/10/15 04:43:49;;;;;;;9.70;2.25;;;;;;;;;;2072939;28;20041;-57
2023/10/15 04:44:50;;;;;;;6.88;1.60;;;;;;;;;;2073288;28;20044;-57
2023/10/15 04:45:51;;;;;;;9.90;2.25;;;;;;;;;;2073639;28;20065;-57
2023/10/15 04:46:54;;;;;;;4.90;1.70;;;;;;;;;;2073447;28;20038;-57
2023/10/15 04:48:01;;;;;;;5.88;1.77;;;;;;;;;;2073805;28;20037;-57
2023/10/15 04:49:07;;;;;;;5.47;2.10;;;;;;;;;;2073423;28;20153;-57
2023/10/15 04:50:14;;;;;;;8.25;2.00;;;;;;;;;;2074028;28;20030;-57
2023/10/15 04:51:15;;;;;;;7.28;1.77;;;;;;;;;;2073913;28;20066;-57
2023/10/15 04:52:18;;;;;;;6.40;1.90;;;;;;;;;;2073985;28;20581;-57
2023/10/15 04:54:23;;;;;;;7.88;2.25;;;;;;;;;;2073513;28;20482;-57
2023/10/15 04:55:26;;;;;;;5.97;1.70;;;;;;;;;;2073923;28;20038;-57
2023/10/15 04:56:26;;;;;;;8.55;1.77;;;;;;;;;;2074243;28;20034;-57
2023/10/15 04:57:28;;;;;;;7.38;1.98;;;;;;;;;;2073131;28;20034;-57
2023/10/15 04:58:29;;;;;;;6.90;1.80;;;;;;;;;;2072660;28;20061;-57
2023/10/15 04:59:29;;;;;;;6.47;1.85;;;;;;;;;;2074090;28;20493;-57
2023/10/15 05:00:33;;;;;;;7.90;2.08;;;;;;;;;;2073462;28;20049;-57
2023/10/15 05:01:33;;;;;;;5.32;2.17;;;;;;;;;;2073815;28;20046;-57
2023/10/15 05:02:34;;;;;;;7.60;1.80;;;;;;;;;;2073790;28;20390;-57
2023/10/15 05:03:36;;;;;;;5.63;1.70;;;;;;;;;;2073720;28;20462;-57
2023/10/15 05:04:37;;;;;;;7.38;2.10;;;;;;;;;;2073885;28;20041;-57
2023/10/15 05:05:38;;;;;;;6.30;1.90;;;;;;;;;;2073775;28;20390;-57
2023/10/15 05:06:38;;;;;;;9.13;1.67;;;;;;;;;;2073429;28;20042;-57
2023/10/15 05:07:39;;;;;;;7.93;2.55;;;;;;;;;;2073858;28;20022;-57
2023/10/15 05:08:40;;;;;;;7.63;1.40;;;;;;;;;;2073708;28;20057;-58
2023/10/15 05:09:44;;;;;;;8.05;2.05;;;;;;;;;;2073785;28;20049;-57
2023/10/15 05:10:45;;;;;;;8.50;2.25;;;;;;;;;;2073745;28;20474;-57
2023/10/15 05:11:45;;;;;;;6.70;1.50;;;;;;;;;;2074212;28;20030;-57
2023/10/15 05:12:46;;;;;;;8.85;1.65;;;;;;;;;;2073826;28;20385;-57
2023/10/15 05:13:47;;;;;;;9.35;2.28;;;;;;;;;;2073757;28;20033;-57
2023/10/15 05:14:49;;;;;;;6.10;2.33;;;;;;;;;;2073460;28;20474;-57
2023/10/15 05:15:50;;;;;;;5.88;1.73;;;;;;;;;;2073989;28;20423;-57
2023/10/15 05:16:50;;;;;;;5.35;1.67;;;;;;;;;;2073684;28;20065;-57
2023/10/15 05:17:51;;;;;;;7.07;2.15;;;;;;;;;;2074100;28;20034;-57
2023/10/15 05:18:52;;;;;;;8.52;2.00;;;;;;;;;;2073412;28;20050;-57
2023/10/15 05:19:53;;;;;;;7.90;2.03;;;;;;;;;;2073804;28;20040;-57
2023/10/15 05:20:53;;;;;;;6.07;1.60;;;;;;;;;;2073776;28;20041;-57
2023/10/15 05:21:54;;;;;;;10.70;2.03;;;;;;;;;;2073854;28;20041;-56
2023/10/15 05:22:56;;;;;;;7.55;1.45;;;;;;;;;;2073770;28;20034;-57
2023/10/15 05:23:57;;;;;;;8.70;2.28;;;;;;;;;;2073687;28;20053;-57
2023/10/15 05:24:59;;;;;;;8.75;1.70;;;;;;;;;;2073461;28;20410;-58
2023/10/15 05:25:59;;;;;;;9.45;1.80;;;;;;;;;;2073674;28;20022;-57
2023/10/15 05:27:00;;;;;;;12.63;2.38;;;;;;;;;;2073956;28;20038;-57
2023/10/15 05:28:01;;;;;;;9.63;1.90;;;;;;;;;;2073892;28;20423;-57
2023/10/15 05:29:02;;;;;;;5.72;1.60;;;;;;;;;;2073785;28;20474;-57
2023/10/15 05:30:02;;;;;;;11.80;2.10;;;;;;;;;;2073511;28;20561;-56
2023/10/15 05:31:03;;;;;;;7.55;1.80;;;;;;;;;;2073436;28;20371;-57
2023/10/15 05:32:04;;;;;;;6.57;1.70;;;;;;;;;;2073548;28;20045;-57
2023/10/15 05:33:07;;;;;;;7.80;1.92;;;;;;;;;;2073840;28;20041;-57
2023/10/15 05:34:08;;;;;;;6.28;1.45;;;;;;;;;;2073453;28;20052;-57
2023/10/15 05:35:08;;;;;;;8.45;2.03;;;;;;;;;;2073524;28;20111;-57
2023/10/15 05:36:09;;;;;;;6.65;1.77;;;;;;;;;;2073774;28;20045;-57
2023/10/15 05:37:10;;;;;;;14.02;2.03;;;;;;;;;;2073391;28;20394;-57
2023/10/15 05:38:11;;;;;;;7.80;1.83;;;;;;;;;;2073555;28;20042;-57
2023/10/15 05:39:15;;;;;;;5.22;1.63;;;;;;;;;;2073410;28;20045;-57
2023/10/15 05:40:16;;;;;;;6.57;1.95;;;;;;;;;;2073473;28;20057;-57
2023/10/15 05:41:19;;;;;;;7.32;2.00;;;;;;;;;;2073525;28;20038;-57
2023/10/15 05:42:19;;;;;;;6.88;1.80;;;;;;;;;;2074007;28;20382;-57
2023/10/15 05:43:20;;;;;;;5.38;1.60;;;;;;;;;;2073685;28;20083;-57
2023/10/15 05:44:21;;;;;;;7.20;2.40;;;;;;;;;;2073429;28;20505;-57
2023/10/15 05:45:22;;;;;;;8.35;1.90;;;;;;;;;;2073078;28;20049;-57
2023/10/15 05:46:22;;;;;;;9.07;2.25;;;;;;;;;;2073765;28;20048;-61
2023/10/15 05:47:23;;;;;;;6.90;1.73;;;;;;;;;;2076341;28;20049;-57
2023/10/15 05:48:24;;;;;;;6.47;2.00;;;;;;;;;;2075670;28;20050;-57
2023/10/15 05:49:25;;;;;;;6.25;1.88;;;;;;;;;;2076315;28;20064;-58
2023/10/15 05:50:26;;;;;;;8.95;2.00;;;;;;;;;;2077161;28;20076;-61
2023/10/15 05:51:27;;;;;;;5.00;1.52;;;;;;;;;;2075936;28;20057;-57
2023/10/15 05:52:28;;;;;;;8.00;1.70;;;;;;;;;;2076738;28;20054;-57
2023/10/15 05:53:29;;;;;;;8.40;2.13;;;;;;;;;;2076548;28;20034;-57
2023/10/15 05:54:34;;;;;;;4.93;1.55;;;;;;;;;;2076368;28;20034;-57
2023/10/15 05:55:34;;;;;;;7.95;1.70;;;;;;;;;;2076681;28;20046;-58
2023/10/15 05:56:35;;;;;;;5.30;1.83;;;;;;;;;;2076602;28;20124;-56
2023/10/15 05:57:36;;;;;;;7.65;1.92;;;;;;;;;;2076403;28;20503;-57
2023/10/15 05:58:37;;;;;;;10.80;1.95;;;;;;;;;;2076157;28;20049;-57
2023/10/15 05:59:37;;;;;;;6.93;1.83;;;;;;;;;;2076201;28;20034;-58
2023/10/15 06:00:41;;;;;;;5.93;1.52;;;;;;;;;;2076513;28;20044;-58
2023/10/15 06:01:42;;;;;;;9.75;2.00;;;;;;;;;;2076452;28;20041;-58
2023/10/15 06:02:43;;;;;;;7.63;1.92;;;;;;;;;;2076433;28;20121;-58
2023/10/15 06:03:45;;;;;;;7.85;1.67;;;;;;;;;;2076435;28;20060;-57
2023/10/15 06:04:47;;;;;;;5.55;1.65;;;;;;;;;;2074352;28;20046;-57
2023/10/15 06:05:47;;;;;;;7.22;1.80;;;;;;;;;;2075219;28;20049;-61
2023/10/15 06:06:48;;;;;;;8.90;2.22;;;;;;;;;;2076124;28;20048;-57
2023/10/15 06:07:49;;;;;;;7.57;1.83;;;;;;;;;;2075826;28;20041;-57
2023/10/15 06:08:50;;;;;;;6.65;1.50;;;;;;;;;;2075803;28;20042;-58
2023/10/15 06:09:51;;;;;;;8.20;1.50;;;;;;;;;;2076186;28;20034;-58
2023/10/15 06:10:52;;;;;;;8.65;1.95;;;;;;;;;;2076121;28;20042;-58
2023/10/15 06:11:52;;;;;;;10.23;2.08;;;;;;;;;;2075965;28;20057;-57
2023/10/15 06:12:53;;;;;;;5.72;1.38;;;;;;;;;;2076529;28;20033;-58
2023/10/15 06:13:54;;;;;;;6.05;1.67;;;;;;;;;;2076407;28;20363;-58
2023/10/15 06:14:55;;;;;;;4.85;1.73;;;;;;;;;;2075786;28;20466;-59
2023/10/15 06:15:55;;;;;;;8.02;1.52;;;;;;;;;;2075921;28;20074;-58
2023/10/15 06:16:56;;;;;;;8.02;1.92;;;;;;;;;;2076366;28;20042;-58
2023/10/15 06:17:58;;;;;;;6.75;1.60;;;;;;;;;;2075208;28;20470;-58
2023/10/15 06:18:59;;;;;;;9.75;1.75;;;;;;;;;;2074628;28;20053;-57
2023/10/15 06:20:12;;;;;;;4.95;1.80;;;;;;;;;;2074737;28;20056;-58
2023/10/15 06:21:14;;;;;;;7.80;1.90;;;;;;;;;;2074950;28;20053;-57
2023/10/15 06:22:14;;;;;;;8.68;2.00;;;;;;;;;;2075018;28;20046;-58
2023/10/15 06:23:18;;;;;;;8.88;1.70;;;;;;;;;;2074953;28;20034;-57
2023/10/15 06:24:18;;;;;;;9.15;1.90;;;;;;;;;;2074499;28;20504;-57
2023/10/15 06:25:19;;;;;;;7.60;2.00;;;;;;;;;;2074645;28;20046;-57
2023/10/15 06:26:20;;;;;;;10.80;1.95;;;;;;;;;;2074836;28;20137;-57
2023/10/15 06:27:21;;;;;;;4.13;1.58;;;;;;;;;;2074881;28;20037;-57
2023/10/15 06:28:22;;;;;;;8.10;1.88;;;;;;;;;;2074639;28;20073;-57